Time;durP1;ratioP1;P1;durP2;ratioP2;P2;SDS_P1;SDS_P2;PMS_P1;PMS_P2;Temp;Humidity;BMP_temperature;BMP_pressure;BME280_temperature;BME280_humidity;BME280_pressure;Samples;Min_cycle;Max_cycle;Signal;HPM_P1;HPM_P2
2022/12/12 00:00:21;;;;;;;14.30;13.20;;;;;;;3.94;65.34;100940.09;5016782;28;20041;-74
2022/12/12 00:02:47;;;;;;;12.93;12.13;;;;;;;3.94;65.35;100956.16;5017214;28;20474;-76
2022/12/12 00:05:17;;;;;;;14.13;12.95;;;;;;;3.93;65.19;100941.09;5015768;28;20109;-75
2022/12/12 00:07:42;;;;;;;13.73;12.40;;;;;;;3.92;65.16;100952.81;5017002;28;20068;-75
2022/12/12 00:10:08;;;;;;;12.23;11.52;;;;;;;3.91;65.29;100946.66;5017094;28;20105;-75
2022/12/12 00:12:34;;;;;;;13.57;12.52;;;;;;;3.92;65.34;100958.19;5015885;28;20038;-74
2022/12/12 00:15:00;;;;;;;13.70;12.65;;;;;;;3.90;65.03;100958.34;5016892;28;20030;-74
2022/12/12 00:17:26;;;;;;;13.75;12.75;;;;;;;3.88;65.09;100957.72;5015339;28;20056;-73
2022/12/12 00:19:51;;;;;;;14.52;13.35;;;;;;;3.87;65.44;100959.56;5032047;28;20041;-76
2022/12/12 00:22:16;;;;;;;12.73;11.95;;;;;;;3.87;65.01;100956.06;5014860;28;20108;-75
2022/12/12 00:24:42;;;;;;;13.27;12.25;;;;;;;3.86;64.88;100957.94;5031796;28;20053;-75
2022/12/12 00:27:08;;;;;;;14.73;13.77;;;;;;;3.85;65.26;100953.59;5015925;28;20038;-76
2022/12/12 00:29:33;;;;;;;15.93;14.27;;;;;;;3.85;65.22;100955.44;5016139;28;20409;-75
2022/12/12 00:31:59;;;;;;;13.18;12.45;;;;;;;3.83;65.15;100957.47;5016285;28;20034;-74
2022/12/12 00:34:24;;;;;;;15.20;13.90;;;;;;;3.83;65.16;100961.00;5015311;28;20521;-76
2022/12/12 00:36:50;;;;;;;13.27;12.48;;;;;;;3.83;64.80;100954.81;5014918;28;20034;-74
2022/12/12 00:39:16;;;;;;;13.27;12.18;;;;;;;3.81;64.97;100959.53;5016190;28;20037;-75
2022/12/12 00:41:42;;;;;;;12.50;11.70;;;;;;;3.81;64.88;100962.22;5015354;28;20084;-73
2022/12/12 00:44:08;;;;;;;12.60;11.75;;;;;;;3.79;64.94;100954.38;5016445;28;20030;-74
2022/12/12 00:46:33;;;;;;;15.13;14.00;;;;;;;3.79;65.19;100954.38;5016671;28;20048;-76
2022/12/12 00:48:58;;;;;;;12.50;11.60;;;;;;;3.78;64.88;100963.41;5016392;28;20073;-75
2022/12/12 00:51:26;;;;;;;13.98;12.82;;;;;;;3.77;65.17;100963.59;5015459;28;20030;-76
2022/12/12 00:53:51;;;;;;;13.63;12.68;;;;;;;3.75;65.00;100963.78;5016158;28;20045;-76
2022/12/12 00:56:19;;;;;;;14.98;13.85;;;;;;;3.76;64.92;100961.97;5014811;28;20160;-75
2022/12/12 00:58:45;;;;;;;14.15;12.90;;;;;;;3.74;64.96;100950.63;5014691;28;20029;-75
2022/12/12 01:01:15;;;;;;;12.20;11.50;;;;;;;3.74;65.11;100958.66;5031590;28;20172;-75
2022/12/12 01:03:41;;;;;;;12.63;11.57;;;;;;;3.74;64.82;100961.31;5014517;28;20100;-74
2022/12/12 01:06:08;;;;;;;14.43;13.52;;;;;;;3.72;64.74;100960.69;5015888;28;20107;-75
2022/12/12 01:08:33;;;;;;;15.68;14.40;;;;;;;3.72;64.79;100968.69;5015781;28;20022;-76
2022/12/12 01:10:59;;;;;;;12.35;11.27;;;;;;;3.70;65.06;100966.19;5014871;28;20037;-75
2022/12/12 01:13:25;;;;;;;12.82;11.95;;;;;;;3.68;64.97;100958.41;5014315;28;20275;-74
2022/12/12 01:15:50;;;;;;;12.98;12.25;;;;;;;3.66;64.94;100968.44;4998145;28;20517;-75
2022/12/12 01:18:16;;;;;;;12.15;11.25;;;;;;;3.67;64.82;100974.59;5015679;28;20041;-76
2022/12/12 01:20:42;;;;;;;12.48;11.35;;;;;;;3.66;64.88;100978.31;5015316;28;20092;-75
2022/12/12 01:23:07;;;;;;;13.93;12.98;;;;;;;3.64;64.96;100975.00;5015144;28;20034;-76
2022/12/12 01:25:33;;;;;;;15.88;14.60;;;;;;;3.64;64.54;100980.34;5014315;28;20429;-76
2022/12/12 01:27:59;;;;;;;11.70;10.95;;;;;;;3.63;64.79;100987.53;5015404;28;20050;-74
2022/12/12 01:30:25;;;;;;;11.73;10.95;;;;;;;3.62;64.54;100996.53;5015340;28;20029;-75
2022/12/12 01:32:51;;;;;;;11.88;10.82;;;;;;;3.61;64.85;100991.41;5015013;28;20084;-74
2022/12/12 01:35:17;;;;;;;11.80;11.02;;;;;;;3.60;64.55;100990.59;5013576;28;20042;-75
2022/12/12 01:37:42;;;;;;;14.02;12.80;;;;;;;3.60;64.81;100993.25;5014546;28;20029;-74
2022/12/12 01:40:14;;;;;;;13.68;12.77;;;;;;;3.59;64.79;100988.91;5014496;28;20067;-75
2022/12/12 01:42:40;;;;;;;14.30;13.20;;;;;;;3.58;64.66;100994.44;5015698;28;20022;-74
2022/12/12 01:45:06;;;;;;;12.75;11.85;;;;;;;3.56;64.85;100994.66;4997667;28;20304;-75
2022/12/12 01:47:31;;;;;;;14.02;13.00;;;;;;;3.56;64.50;100994.66;5015086;28;20489;-75
2022/12/12 01:50:07;;;;;;;17.13;14.35;;;;;;;3.55;64.70;101005.50;5013597;28;20034;-75
2022/12/12 01:52:48;;;;;;;13.25;12.32;;;;;;;3.54;64.44;101006.53;5014097;28;20026;-74
2022/12/12 01:55:19;;;;;;;14.05;12.98;;;;;;;3.53;64.72;101004.88;5014619;28;20040;-74
2022/12/12 01:57:48;;;;;;;12.02;11.23;;;;;;;3.51;64.76;101012.25;5015525;28;20018;-73
2022/12/12 02:00:14;;;;;;;13.73;12.70;;;;;;;3.51;64.72;101014.94;5014850;28;20033;-75
2022/12/12 02:02:42;;;;;;;13.45;12.50;;;;;;;3.50;64.52;100999.91;5014619;28;20034;-76
2022/12/12 02:05:20;;;;;;;11.80;11.20;;;;;;;3.46;64.41;100997.63;5014644;28;20079;-74
2022/12/12 02:07:45;;;;;;;12.30;11.47;;;;;;;3.47;64.45;101011.81;5013935;28;20041;-75
2022/12/12 02:10:11;;;;;;;13.23;12.27;;;;;;;3.46;64.23;101008.31;5014614;28;20374;-75
2022/12/12 02:12:37;;;;;;;12.88;11.88;;;;;;;3.45;64.79;101005.81;5014943;28;20033;-75
2022/12/12 02:15:02;;;;;;;14.77;10.60;;;;;;;3.44;64.22;101007.66;5014676;28;20108;-76
2022/12/12 02:17:39;;;;;;;16.25;14.48;;;;;;;3.43;64.41;101008.69;5013099;28;20034;-74
2022/12/12 02:20:07;;;;;;;12.60;11.80;;;;;;;3.42;64.39;101003.53;5014078;28;20081;-74
2022/12/12 02:22:46;;;;;;;13.90;12.80;;;;;;;3.40;64.34;101009.06;5029714;28;20452;-74
2022/12/12 02:25:20;;;;;;;13.40;12.57;;;;;;;3.39;64.38;101012.75;5014420;28;20022;-75
2022/12/12 02:27:59;;;;;;;14.48;13.02;;;;;;;3.39;64.16;101009.25;5014509;28;20044;-75
2022/12/12 02:30:47;;;;;;;11.75;10.85;;;;;;;3.37;64.35;101014.78;5013235;28;20033;-74
2022/12/12 02:33:38;;;;;;;12.20;11.30;;;;;;;3.36;64.39;101007.78;5014194;28;20105;-75
2022/12/12 02:36:48;;;;;;;11.20;10.50;;;;;;;3.34;64.38;101020.50;5012858;28;20026;-74
2022/12/12 02:39:36;;;;;;;12.23;11.25;;;;;;;3.34;64.32;101025.84;5013566;28;20042;-75
2022/12/12 02:42:08;;;;;;;10.95;10.25;;;;;;;3.31;64.52;101020.88;5014276;28;20044;-73
2022/12/12 02:44:52;;;;;;;12.63;11.70;;;;;;;3.31;63.92;101017.38;5029576;28;20026;-74
2022/12/12 02:47:22;;;;;;;12.85;11.75;;;;;;;3.29;64.08;101022.91;5014283;28;20030;-74
2022/12/12 02:49:48;;;;;;;14.25;13.30;;;;;;;3.28;64.31;101026.59;5012849;28;20387;-74
2022/12/12 02:52:15;;;;;;;10.52;9.90;;;;;;;3.28;64.49;101020.44;5028973;28;20037;-76
2022/12/12 02:54:40;;;;;;;13.90;12.80;;;;;;;3.26;63.94;101023.28;5012567;28;20029;-75
2022/12/12 02:57:13;;;;;;;13.00;12.00;;;;;;;3.26;64.05;101020.63;5012718;28;20474;-73
2022/12/12 02:59:47;;;;;;;13.10;11.90;;;;;;;3.25;64.07;101017.13;5013804;28;20069;-74
2022/12/12 03:02:40;;;;;;;13.80;12.65;;;;;;;3.23;64.37;101019.16;5013575;28;20030;-74
2022/12/12 03:08:27;;;;;;;11.18;10.50;;;;;;;3.21;64.13;101020.34;5013790;28;20065;-75
2022/12/12 03:11:00;;;;;;;11.68;10.98;;;;;;;3.18;64.32;101016.22;5013783;28;20030;-75
2022/12/12 03:13:44;;;;;;;14.98;13.85;;;;;;;3.18;64.18;101021.56;5013892;28;20113;-75
2022/12/12 03:16:26;;;;;;;13.02;12.15;;;;;;;3.17;64.23;101019.06;5013607;28;20455;-76
2022/12/12 03:18:55;;;;;;;13.85;12.75;;;;;;;3.16;63.99;101018.25;4996572;28;20028;-75
2022/12/12 03:21:36;;;;;;;10.70;10.10;;;;;;;3.15;63.92;101015.75;5013375;28;20045;-74
2022/12/12 03:24:08;;;;;;;10.98;10.30;;;;;;;3.14;63.88;101017.59;5013769;28;20041;-74
2022/12/12 03:26:52;;;;;;;12.57;11.68;;;;;;;3.13;63.97;101018.63;5013639;28;20502;-75
2022/12/12 03:29:24;;;;;;;11.52;10.82;;;;;;;3.11;64.17;101017.16;5029131;28;20072;-75
2022/12/12 03:31:54;;;;;;;13.18;12.10;;;;;;;3.10;64.22;101019.00;5012239;28;20489;-74
2022/12/12 03:34:28;;;;;;;11.00;10.30;;;;;;;3.10;63.97;101019.00;5016337;28;20108;-73
2022/12/12 03:37:00;;;;;;;14.05;13.15;;;;;;;3.09;63.91;101012.00;5016985;28;20038;-74
2022/12/12 03:39:31;;;;;;;12.02;11.30;;;;;;;3.09;63.96;101011.16;5033216;28;20029;-75
2022/12/12 03:42:26;;;;;;;12.35;11.55;;;;;;;3.07;64.18;101014.00;5017527;28;20030;-72
2022/12/12 03:45:00;;;;;;;13.27;12.27;;;;;;;3.06;64.20;101007.03;5014884;28;20115;-74
2022/12/12 03:47:37;;;;;;;12.57;11.77;;;;;;;3.06;63.66;101006.22;5017034;28;20041;-74
2022/12/12 03:50:08;;;;;;;13.55;12.75;;;;;;;3.04;63.92;101015.22;5017534;28;20022;-73
2022/12/12 03:52:46;;;;;;;11.55;10.95;;;;;;;3.03;63.96;101005.56;5016945;28;20092;-73
2022/12/12 03:55:58;;;;;;;39.45;12.20;;;;;;;3.03;64.09;101010.06;5017547;28;20037;-72
2022/12/12 03:58:37;;;;;;;12.32;11.55;;;;;;;3.00;63.95;101005.94;5016625;28;20471;-72
2022/12/12 04:01:06;;;;;;;;;;;;;;;3.00;63.95;101007.78;5016917;28;20029;-72
2022/12/12 04:03:43;;;;;;;11.18;10.48;;;;;;;2.98;63.85;101007.97;5017357;28;19964;-74
2022/12/12 04:06:25;;;;;;;10.38;9.73;;;;;;;2.96;63.66;101007.31;5017184;28;20030;-73
2022/12/12 04:15:06;;;;;;;11.55;10.85;;;;;;;2.92;63.63;101019.38;5017421;28;20420;-72
2022/12/12 04:18:13;;;;;;;11.25;10.60;;;;;;;2.90;63.82;101021.41;5015374;28;20117;-76
2022/12/12 04:24:09;;;;;;;11.25;10.50;;;;;;;2.87;64.04;101021.75;5016228;28;20088;-73
2022/12/12 04:26:41;;;;;;;12.73;11.68;;;;;;;2.86;63.74;101025.44;5017136;28;20120;-73
2022/12/12 04:29:10;;;;;;;11.75;10.95;;;;;;;2.85;63.65;101026.47;5016723;28;20470;-73
2022/12/12 04:31:42;;;;;;;11.45;10.68;;;;;;;2.86;63.93;101029.97;5016207;28;20490;-74
2022/12/12 04:34:31;;;;;;;11.40;10.68;;;;;;;2.85;63.76;101022.97;5015383;28;20120;-73
2022/12/12 04:36:58;;;;;;;16.25;14.82;;;;;;;2.84;64.01;101026.66;5015586;28;20079;-73
2022/12/12 04:39:24;;;;;;;10.50;9.80;;;;;;;2.84;63.48;101030.13;5016587;28;20057;-73
2022/12/12 04:41:52;;;;;;;13.55;12.43;;;;;;;2.82;63.71;101034.81;5016322;28;20034;-75
2022/12/12 04:44:21;;;;;;;14.52;13.05;;;;;;;2.81;63.60;101036.66;5014797;28;20026;-73
2022/12/12 04:46:50;;;;;;;14.50;13.15;;;;;;;2.81;63.76;101041.19;5016177;28;20030;-74
2022/12/12 04:49:24;;;;;;;13.52;10.30;;;;;;;2.80;63.92;101039.53;5016124;28;20486;-73
2022/12/12 04:51:54;;;;;;;11.80;10.95;;;;;;;2.79;63.81;101033.34;5016369;28;20030;-73
2022/12/12 04:54:35;;;;;;;11.77;10.98;;;;;;;2.78;63.65;101034.38;5031230;28;20026;-72
2022/12/12 04:57:05;;;;;;;12.70;11.65;;;;;;;2.77;63.76;101031.88;5015902;28;20026;-73
2022/12/12 04:59:30;;;;;;;12.10;11.40;;;;;;;2.77;64.05;101037.22;5016225;28;20048;-74
2022/12/12 05:02:22;;;;;;;12.90;11.93;;;;;;;2.75;63.83;101037.41;5015443;28;20462;-72
2022/12/12 05:04:56;;;;;;;13.13;11.93;;;;;;;2.75;63.51;101042.75;5014911;28;20042;-72
2022/12/12 05:07:33;;;;;;;10.45;9.65;;;;;;;2.74;63.70;101037.59;5015472;28;20022;-73
2022/12/12 05:09:59;;;;;;;13.27;12.27;;;;;;;2.73;63.63;101043.94;5015940;28;20030;-72
2022/12/12 05:12:24;;;;;;;11.77;10.98;;;;;;;2.71;63.73;101040.63;5015678;28;20517;-72
2022/12/12 05:14:50;;;;;;;12.02;11.18;;;;;;;2.70;63.37;101041.66;5014003;28;20034;-73
2022/12/12 05:17:22;;;;;;;11.00;10.30;;;;;;;2.69;63.71;101037.31;5015370;28;20038;-73
2022/12/12 05:19:47;;;;;;;11.35;10.60;;;;;;;2.68;63.78;101041.00;5015522;28;20534;-74
2022/12/12 05:22:12;;;;;;;10.73;10.02;;;;;;;2.67;63.43;101050.84;5015720;28;20125;-73
2022/12/12 05:24:38;;;;;;;11.30;10.50;;;;;;;2.66;63.32;101045.69;5014190;28;20505;-74
2022/12/12 05:27:04;;;;;;;12.13;11.27;;;;;;;2.66;63.59;101045.69;5014115;28;20026;-74
2022/12/12 05:29:30;;;;;;;9.50;8.80;;;;;;;2.64;63.80;101047.72;5015674;28;20025;-73
2022/12/12 05:31:56;;;;;;;13.50;12.35;;;;;;;2.64;63.63;101051.19;5016054;28;20080;-76
2022/12/12 05:34:21;;;;;;;14.25;13.15;;;;;;;2.63;63.74;101046.06;4997835;28;20033;-75
2022/12/12 05:36:47;;;;;;;12.00;11.18;;;;;;;2.62;63.71;101050.56;5030082;28;20103;-76
2022/12/12 05:39:12;;;;;;;10.68;9.98;;;;;;;2.62;63.37;101049.72;4997770;28;20030;-74
2022/12/12 05:41:38;;;;;;;14.02;10.65;;;;;;;2.62;63.21;101047.06;5015412;28;20119;-73
2022/12/12 05:44:03;;;;;;;14.70;13.40;;;;;;;2.59;63.20;101049.06;5014842;28;20454;-75
2022/12/12 05:46:29;;;;;;;12.15;11.45;;;;;;;2.58;63.19;101055.44;5013462;28;20038;-74
2022/12/12 05:48:54;;;;;;;11.38;10.50;;;;;;;2.58;63.20;101054.59;5013712;28;20030;-73
2022/12/12 05:51:20;;;;;;;11.63;10.93;;;;;;;2.56;63.23;101056.63;5015437;28;20466;-75
2022/12/12 05:53:46;;;;;;;10.38;9.77;;;;;;;2.54;63.42;101059.47;5014971;28;20033;-75
2022/12/12 05:56:14;;;;;;;8.82;8.30;;;;;;;2.54;63.10;101062.13;5013862;28;20101;-73
2022/12/12 05:58:40;;;;;;;9.70;9.07;;;;;;;2.52;63.54;101052.66;5014503;28;20030;-74
2022/12/12 06:01:06;;;;;;;11.52;10.63;;;;;;;2.52;63.53;101065.97;5013578;28;20044;-74
2022/12/12 06:03:32;;;;;;;11.57;10.93;;;;;;;2.50;63.14;101055.53;5014704;28;20040;-74
2022/12/12 06:05:58;;;;;;;13.05;11.95;;;;;;;2.49;63.26;101064.50;5014187;28;20069;-73
2022/12/12 06:08:23;;;;;;;9.07;8.48;;;;;;;2.48;63.37;101065.53;5013100;28;20030;-75
2022/12/12 06:10:49;;;;;;;10.48;9.88;;;;;;;2.47;63.55;101053.22;5014491;28;20106;-78
2022/12/12 06:13:14;;;;;;;10.52;9.90;;;;;;;2.47;63.12;101063.03;5014965;28;20037;-75
2022/12/12 06:15:40;;;;;;;10.63;9.93;;;;;;;2.46;63.16;101066.72;5014691;28;20061;-74
2022/12/12 06:18:11;;;;;;;11.90;10.90;;;;;;;2.45;63.46;101071.25;5014304;28;20429;-74
2022/12/12 06:20:37;;;;;;;11.57;10.98;;;;;;;2.44;63.35;101066.06;5014244;28;20077;-74
2022/12/12 06:23:02;;;;;;;11.15;10.32;;;;;;;2.42;63.12;101070.75;5014291;28;20029;-74
2022/12/12 06:25:28;;;;;;;10.05;9.45;;;;;;;2.41;63.38;101075.25;5014247;28;20385;-73
2022/12/12 06:27:53;;;;;;;11.63;10.82;;;;;;;2.40;63.35;101078.94;5014350;28;20470;-74
2022/12/12 06:30:19;;;;;;;9.55;8.95;;;;;;;2.38;63.06;101078.28;5014251;28;20038;-75
2022/12/12 06:32:44;;;;;;;11.57;10.82;;;;;;;2.38;63.25;101087.13;5012996;28;20041;-74
2022/12/12 06:35:10;;;;;;;12.43;11.40;;;;;;;2.36;63.10;101083.78;5013672;28;20026;-73
2022/12/12 06:37:36;;;;;;;13.43;12.52;;;;;;;2.36;63.15;101089.13;5012802;28;20080;-74
2022/12/12 06:40:01;;;;;;;12.20;11.15;;;;;;;2.35;62.91;101086.66;5013731;28;20498;-73
2022/12/12 06:42:27;;;;;;;12.77;11.82;;;;;;;2.34;63.24;101080.50;5013968;28;20414;-72
2022/12/12 06:44:52;;;;;;;11.68;10.95;;;;;;;2.32;63.30;101095.84;5012856;28;20080;-74
2022/12/12 06:47:17;;;;;;;11.23;10.43;;;;;;;2.32;63.36;101092.34;5013964;28;20037;-73
2022/12/12 06:49:43;;;;;;;10.82;10.13;;;;;;;2.30;63.31;101095.19;5029071;28;20037;-75
2022/12/12 06:52:08;;;;;;;10.85;10.15;;;;;;;2.30;62.96;101102.38;5013885;28;20418;-73
2022/12/12 06:54:34;;;;;;;10.35;9.73;;;;;;;2.28;63.04;101096.38;5013785;28;20407;-73
2022/12/12 06:57:00;;;;;;;13.40;12.20;;;;;;;2.27;63.35;101100.88;5013734;28;20542;-73
2022/12/12 06:59:27;;;;;;;10.35;9.75;;;;;;;2.26;63.21;101095.72;5012544;28;20117;-79
2022/12/12 07:01:55;;;;;;;10.40;9.77;;;;;;;2.24;62.85;101101.22;5013767;28;20040;-73
2022/12/12 07:04:20;;;;;;;9.32;8.73;;;;;;;2.24;62.92;101103.88;5013959;28;20030;-75
2022/12/12 07:06:45;;;;;;;9.50;8.90;;;;;;;2.23;62.89;101104.91;5013634;28;20096;-73
2022/12/12 07:09:11;;;;;;;11.93;10.95;;;;;;;2.22;63.31;101113.06;5012601;28;20034;-77
2022/12/12 07:11:38;;;;;;;9.45;8.85;;;;;;;2.22;63.15;101115.72;5012622;28;20355;-73
2022/12/12 07:14:04;;;;;;;12.43;11.50;;;;;;;2.20;63.06;101099.94;5013309;28;20079;-75
2022/12/12 07:16:30;;;;;;;13.23;12.18;;;;;;;2.19;63.07;101108.94;5013188;28;20034;-75
2022/12/12 07:18:55;;;;;;;9.60;9.07;;;;;;;2.18;62.55;101109.94;5013219;28;20161;-74
2022/12/12 07:21:21;;;;;;;8.98;8.43;;;;;;;2.16;62.84;101111.97;5013427;28;20431;-73
2022/12/12 07:23:46;;;;;;;12.70;11.48;;;;;;;2.15;63.14;101108.47;5013289;28;20030;-78
2022/12/12 07:26:16;;;;;;;13.82;12.80;;;;;;;2.14;62.90;101116.63;5028959;28;20034;-74
2022/12/12 07:28:41;;;;;;;11.05;10.35;;;;;;;2.13;62.76;101115.81;5013952;28;20102;-74
2022/12/12 07:31:10;;;;;;;12.13;11.13;;;;;;;2.12;63.06;101116.81;5013230;28;20121;-77
2022/12/12 07:33:36;;;;;;;10.73;10.07;;;;;;;2.11;62.87;101120.47;5013389;28;20033;-74
2022/12/12 07:36:02;;;;;;;10.25;9.40;;;;;;;2.11;63.10;101125.00;5012509;28;20041;-76
2022/12/12 07:38:28;;;;;;;13.38;12.30;;;;;;;2.10;62.86;101112.69;5011859;28;20033;-74
2022/12/12 07:40:53;;;;;;;13.45;12.43;;;;;;;2.09;62.75;101125.19;5012993;28;20048;-74
2022/12/12 07:43:19;;;;;;;30.70;11.02;;;;;;;2.08;63.03;101128.00;5012934;28;20026;-75
2022/12/12 07:45:46;;;;;;;10.20;9.50;;;;;;;2.07;62.85;101127.19;5013232;28;20488;-73
2022/12/12 07:48:12;;;;;;;12.07;10.98;;;;;;;2.06;62.98;101133.50;5012865;28;20030;-75
2022/12/12 07:50:38;;;;;;;11.75;10.85;;;;;;;2.05;63.06;101131.84;5012941;28;20088;-78
2022/12/12 07:53:04;;;;;;;12.02;11.05;;;;;;;2.04;62.66;101132.88;5013269;28;20026;-76
2022/12/12 07:55:29;;;;;;;11.02;10.25;;;;;;;2.02;62.84;101132.22;5027978;28;20088;-75
2022/12/12 07:57:55;;;;;;;11.95;11.02;;;;;;;2.02;63.09;101134.88;5012894;28;20064;-76
2022/12/12 08:00:20;;;;;;;13.05;11.73;;;;;;;2.02;62.74;101142.06;5012590;28;20129;-75
2022/12/12 08:02:46;;;;;;;12.20;11.27;;;;;;;2.01;62.90;101143.88;5028181;28;20038;-76
2022/12/12 08:05:12;;;;;;;13.68;12.45;;;;;;;2.00;62.79;101146.72;5012593;28;20041;-75
2022/12/12 08:07:37;;;;;;;13.30;12.10;;;;;;;2.00;62.88;101152.06;5013212;28;20109;-73
2022/12/12 08:10:03;;;;;;;10.48;9.77;;;;;;;1.98;62.92;101152.22;5012624;28;20459;-75
2022/12/12 08:12:29;;;;;;;12.68;11.65;;;;;;;1.99;62.85;101158.38;5012471;28;20053;-79
2022/12/12 08:14:55;;;;;;;12.07;11.27;;;;;;;1.97;62.75;101155.91;5012972;28;20466;-75
2022/12/12 08:17:20;;;;;;;12.25;11.30;;;;;;;1.95;63.07;101153.41;5012301;28;20026;-74
2022/12/12 08:19:45;;;;;;;11.27;10.52;;;;;;;1.95;62.57;101163.22;5013843;28;20042;-73
2022/12/12 08:22:11;;;;;;;13.63;12.50;;;;;;;1.95;63.07;101166.72;5015937;28;20057;-75
2022/12/12 08:24:36;;;;;;;12.60;11.68;;;;;;;1.94;62.82;101166.88;5015721;28;20638;-74
2022/12/12 08:27:02;;;;;;;11.45;10.57;;;;;;;1.92;62.87;101174.25;5015763;28;20494;-74
2022/12/12 08:29:27;;;;;;;11.48;10.43;;;;;;;1.92;62.66;101174.25;5015955;28;20057;-76
2022/12/12 08:31:53;;;;;;;10.35;9.70;;;;;;;1.91;62.79;101173.41;5014528;28;20030;-75
2022/12/12 08:34:18;;;;;;;12.68;11.60;;;;;;;1.90;63.02;101170.94;5015714;28;20065;-74
2022/12/12 08:36:44;;;;;;;12.52;11.40;;;;;;;1.90;62.77;101173.59;5016237;28;20101;-75
2022/12/12 08:39:11;;;;;;;19.70;13.05;;;;;;;1.89;62.71;101169.25;5016126;28;20088;-75
2022/12/12 08:41:40;;;;;;;9.85;9.10;;;;;;;1.87;62.78;101176.59;5016189;28;20026;-75
2022/12/12 08:44:07;;;;;;;13.90;12.82;;;;;;;1.87;62.72;101173.94;5015186;28;20096;-76
2022/12/12 08:46:33;;;;;;;15.63;12.50;;;;;;;1.87;63.00;101176.59;5014289;28;20034;-80
2022/12/12 08:48:58;;;;;;;11.82;10.88;;;;;;;1.85;62.86;101184.75;5015370;28;20370;-76
2022/12/12 08:51:24;;;;;;;15.15;13.80;;;;;;;1.85;62.57;101184.75;5015836;28;20052;-78
2022/12/12 08:53:51;;;;;;;11.70;10.82;;;;;;;1.84;62.62;101191.09;5014830;28;20052;-76
2022/12/12 08:56:18;;;;;;;13.85;12.52;;;;;;;1.84;63.06;101192.91;5015314;28;20065;-80
2022/12/12 08:58:43;;;;;;;11.30;10.50;;;;;;;1.83;62.82;101186.75;5015174;28;20026;-76
2022/12/12 09:01:14;;;;;;;11.88;10.88;;;;;;;1.82;62.72;101184.28;5015365;28;20037;-75
2022/12/12 09:03:39;;;;;;;11.27;10.27;;;;;;;1.82;62.84;101184.28;5015114;28;20034;-74
2022/12/12 09:06:07;;;;;;;15.05;13.35;;;;;;;1.79;62.85;101180.16;5015308;28;20087;-76
2022/12/12 09:08:33;;;;;;;14.95;13.68;;;;;;;1.79;62.71;101185.47;5015531;28;20033;-78
2022/12/12 09:10:58;;;;;;;11.52;10.60;;;;;;;1.78;62.77;101180.31;5030460;28;20041;-76
2022/12/12 09:13:24;;;;;;;14.07;12.88;;;;;;;1.78;62.82;101186.47;5014797;28;20091;-76
2022/12/12 09:15:51;;;;;;;22.85;11.95;;;;;;;1.78;62.86;101188.28;5014969;28;20056;-74
2022/12/12 09:18:16;;;;;;;15.13;13.80;;;;;;;1.76;62.92;101187.63;5015021;28;20026;-75
2022/12/12 09:20:42;;;;;;;12.20;11.18;;;;;;;1.75;63.10;101186.00;5014585;28;20061;-75
2022/12/12 09:23:07;;;;;;;11.07;10.25;;;;;;;1.75;62.90;101184.16;5013925;28;20034;-76
2022/12/12 09:25:32;;;;;;;12.73;11.80;;;;;;;1.74;62.96;101185.16;5015031;28;20493;-74
2022/12/12 09:27:58;;;;;;;13.35;12.10;;;;;;;1.74;62.84;101193.16;5013421;28;20041;-76
2022/12/12 09:30:24;;;;;;;13.40;12.07;;;;;;;1.73;63.16;101199.47;5013474;28;20072;-76
2022/12/12 09:32:50;;;;;;;10.25;9.50;;;;;;;1.73;63.20;101196.81;5014749;28;20415;-77
2022/12/12 09:35:15;;;;;;;15.27;13.88;;;;;;;1.71;63.18;101188.16;5014469;28;20057;-78
2022/12/12 09:37:41;;;;;;;10.82;10.07;;;;;;;1.71;62.86;101194.34;5014499;28;20036;-76
2022/12/12 09:40:07;;;;;;;12.32;11.38;;;;;;;1.70;63.15;101190.00;4997038;28;20045;-76
2022/12/12 09:42:34;;;;;;;12.38;11.43;;;;;;;1.69;62.74;101188.34;5014166;28;20034;-76
2022/12/12 09:45:03;;;;;;;11.60;10.75;;;;;;;1.70;63.12;101189.16;5013249;28;20022;-76
2022/12/12 09:47:44;;;;;;;13.48;12.27;;;;;;;1.68;63.25;101186.66;5014309;28;20030;-78
2022/12/12 09:50:31;;;;;;;13.70;12.50;;;;;;;1.67;63.14;101187.69;5012949;28;20545;-77
2022/12/12 09:53:10;;;;;;;13.55;10.90;;;;;;;1.67;62.90;101193.00;5014571;28;20168;-75
2022/12/12 09:55:53;;;;;;;12.55;11.60;;;;;;;1.67;62.84;101186.84;5014759;28;20494;-74
2022/12/12 09:58:22;;;;;;;14.82;12.07;;;;;;;1.66;62.96;101187.84;5014250;28;20181;-74
2022/12/12 10:00:57;;;;;;;12.45;11.45;;;;;;;1.65;63.29;101188.84;5014334;28;20053;-75
2022/12/12 10:03:29;;;;;;;13.45;12.20;;;;;;;1.64;63.38;101190.69;5013270;28;20037;-76
2022/12/12 10:06:03;;;;;;;9.63;8.93;;;;;;;1.64;63.08;101193.38;5014245;28;20034;-75
2022/12/12 10:08:53;;;;;;;12.85;11.65;;;;;;;1.63;63.08;101182.88;5014479;28;20030;-73
2022/12/12 10:14:23;;;;;;;13.45;12.35;;;;;;;1.61;63.38;101187.53;5014474;28;20041;-75
2022/12/12 10:16:49;;;;;;;12.70;11.70;;;;;;;1.60;63.42;101186.72;5013523;28;20109;-75
2022/12/12 10:19:31;;;;;;;11.90;10.88;;;;;;;1.60;63.27;101181.38;5014016;28;20422;-73
2022/12/12 10:22:06;;;;;;;10.15;9.45;;;;;;;1.60;63.01;101177.91;5013737;28;20218;-74
2022/12/12 10:24:50;;;;;;;15.18;13.60;;;;;;;1.60;63.39;101173.41;5012504;28;20109;-74
2022/12/12 10:27:16;;;;;;;13.52;12.40;;;;;;;1.59;63.32;101171.75;5013907;28;20439;-73
2022/12/12 10:29:47;;;;;;;11.57;10.65;;;;;;;1.59;63.02;101168.22;5012518;28;20109;-74
2022/12/12 10:32:39;;;;;;;12.10;11.10;;;;;;;1.58;63.24;101164.75;5013214;28;20026;-73
2022/12/12 10:35:28;;;;;;;10.90;10.00;;;;;;;1.57;63.18;101157.78;5013818;28;20034;-75
2022/12/12 10:38:12;;;;;;;11.82;10.88;;;;;;;1.56;63.23;101164.09;5013803;28;20030;-77
2022/12/12 10:40:37;;;;;;;13.07;12.05;;;;;;;1.55;63.11;101167.75;5013622;28;20107;-75
2022/12/12 10:43:26;;;;;;;19.48;12.68;;;;;;;1.55;63.66;101167.75;5013281;28;20061;-75
2022/12/12 10:46:16;;;;;;;10.82;9.82;;;;;;;1.55;63.61;101162.44;5029063;28;20030;-75
2022/12/12 10:48:43;;;;;;;11.68;10.75;;;;;;;1.54;63.42;101168.78;5013659;28;20416;-76
2022/12/12 10:51:12;;;;;;;12.57;11.52;;;;;;;1.54;63.51;101167.91;5013091;28;20037;-76
2022/12/12 10:53:39;;;;;;;10.27;9.57;;;;;;;1.54;63.38;101159.94;5013232;28;20435;-76
2022/12/12 10:56:08;;;;;;;13.13;11.82;;;;;;;1.54;63.46;101168.78;5013212;28;20037;-75
2022/12/12 10:58:38;;;;;;;13.85;11.85;;;;;;;1.53;63.63;101164.44;5013229;28;20049;-75
2022/12/12 11:01:11;;;;;;;43.08;13.15;;;;;;;1.54;63.50;101162.59;5013320;28;20053;-76
2022/12/12 11:03:48;;;;;;;12.35;11.13;;;;;;;1.54;63.27;101159.94;5013553;28;20034;-76
2022/12/12 11:06:38;;;;;;;18.33;15.48;;;;;;;1.54;63.47;101159.94;5012421;28;20058;-75
2022/12/12 11:09:33;;;;;;;11.82;10.73;;;;;;;1.54;63.46;101152.81;5012935;28;20030;-75
2022/12/12 11:12:11;;;;;;;12.13;11.00;;;;;;;1.54;63.17;101157.28;5012070;28;20045;-76
2022/12/12 11:14:39;;;;;;;17.55;15.10;;;;;;;1.54;63.48;101150.13;5013041;28;20030;-74
2022/12/12 11:17:18;;;;;;;15.27;13.93;;;;;;;1.54;63.56;101146.63;5013034;28;20040;-76
2022/12/12 11:19:45;;;;;;;18.50;14.07;;;;;;;1.53;63.63;101143.13;5013192;28;20072;-74
2022/12/12 11:22:12;;;;;;;11.38;10.38;;;;;;;1.54;63.63;101149.28;5013366;28;20057;-74
2022/12/12 11:24:43;;;;;;;28.90;12.23;;;;;;;1.54;63.42;101149.28;5013240;28;20034;-76
2022/12/12 11:27:31;;;;;;;13.98;12.73;;;;;;;1.52;63.23;101150.31;5011415;28;20048;-78
2022/12/12 11:30:01;;;;;;;32.75;12.38;;;;;;;1.51;63.33;101145.13;5011594;28;20026;-69
2022/12/12 11:32:36;;;;;;;13.02;11.68;;;;;;;1.52;63.31;101142.31;5012889;28;20048;-72
2022/12/12 11:35:05;;;;;;;23.48;12.93;;;;;;;1.51;63.71;101139.81;5013238;28;20388;-75
2022/12/12 11:37:46;;;;;;;11.90;10.85;;;;;;;1.52;63.61;101141.50;5012856;28;20041;-75
2022/12/12 11:40:30;;;;;;;12.82;11.73;;;;;;;1.51;63.61;101137.16;5011446;28;20366;-75
2022/12/12 11:43:17;;;;;;;14.75;13.20;;;;;;;1.50;63.40;101138.16;5012801;28;20026;-73
2022/12/12 11:45:56;;;;;;;14.55;13.30;;;;;;;1.51;63.51;101137.16;5013016;28;20101;-74
2022/12/12 11:48:39;;;;;;;10.63;9.85;;;;;;;1.50;63.55;101132.84;5028286;28;20447;-74